Time;durP1;ratioP1;P1;durP2;ratioP2;P2;SDS_P1;SDS_P2;PMS_P1;PMS_P2;Temp;Humidity;BMP_temperature;BMP_pressure;BME280_temperature;BME280_humidity;BME280_pressure;Samples;Min_cycle;Max_cycle;Signal;HPM_P1;HPM_P2
2021/07/06 00:00:48;;;;;;;7.53;4.05;;;16.90;99.90;;;;;;5083387;28;20438;-71
2021/07/06 00:03:13;;;;;;;15.25;4.57;;;17.00;99.90;;;;;;5079030;28;20484;-72
2021/07/06 00:05:39;;;;;;;9.15;4.20;;;16.90;99.90;;;;;;5079972;28;20082;-71
2021/07/06 00:08:05;;;;;;;8.43;4.22;;;16.90;99.90;;;;;;5079456;28;20035;-71
2021/07/06 00:10:31;;;;;;;11.52;4.53;;;16.90;99.90;;;;;;5082360;28;20036;-71
2021/07/06 00:12:57;;;;;;;8.23;4.35;;;16.90;99.90;;;;;;5081959;28;20496;-71
2021/07/06 00:15:23;;;;;;;7.55;4.10;;;16.90;99.90;;;;;;5063205;28;20039;-72
2021/07/06 00:17:53;;;;;;;8.60;4.82;;;16.90;99.90;;;;;;5083179;28;20089;-71
2021/07/06 00:20:20;;;;;;;8.55;3.97;;;16.90;99.90;;;;;;5079709;28;20507;-71
2021/07/06 00:22:46;;;;;;;6.45;3.60;;;16.90;99.90;;;;;;5079810;28;20033;-71
2021/07/06 00:25:12;;;;;;;9.52;3.97;;;17.00;99.90;;;;;;5083226;28;20552;-71
2021/07/06 00:27:38;;;;;;;7.68;3.00;;;17.00;99.90;;;;;;5080504;28;20090;-71
2021/07/06 00:30:05;;;;;;;9.77;3.20;;;17.00;99.90;;;;;;5082506;28;20029;-71
2021/07/06 00:32:32;;;;;;;12.55;4.05;;;17.00;99.90;;;;;;5061090;28;20110;-72
2021/07/06 00:34:57;;;;;;;8.25;3.80;;;17.00;99.90;;;;;;5083369;28;20161;-71
2021/07/06 00:37:23;;;;;;;11.80;4.45;;;17.00;99.90;;;;;;5080623;28;20050;-71
2021/07/06 00:39:48;;;;;;;6.97;3.75;;;17.00;99.90;;;;;;5076920;28;20481;-71
2021/07/06 00:42:14;;;;;;;8.45;3.80;;;16.90;99.90;;;;;;5084522;28;20511;-71
2021/07/06 00:44:40;;;;;;;6.28;3.80;;;16.90;99.90;;;;;;5061486;28;20029;-71
2021/07/06 00:47:07;;;;;;;6.85;3.97;;;17.00;99.90;;;;;;5075878;28;20059;-71
2021/07/06 00:49:33;;;;;;;8.48;4.18;;;16.90;99.90;;;;;;5064333;28;20077;-71
2021/07/06 00:51:58;;;;;;;5.10;3.38;;;16.90;99.90;;;;;;5080681;28;20016;-71
2021/07/06 00:54:24;;;;;;;7.55;4.05;;;16.90;99.90;;;;;;5062465;28;20066;-71
2021/07/06 00:56:50;;;;;;;6.25;3.60;;;17.00;99.90;;;;;;5081557;28;20043;-71
2021/07/06 00:59:15;;;;;;;6.38;3.33;;;17.00;99.90;;;;;;5081149;28;20061;-71
2021/07/06 01:01:41;;;;;;;6.30;3.65;;;16.90;99.90;;;;;;5082820;28;20556;-71
2021/07/06 01:04:07;;;;;;;7.00;3.70;;;16.90;99.90;;;;;;5078959;28;20511;-71
2021/07/06 01:06:33;;;;;;;6.90;3.05;;;17.00;99.90;;;;;;5081990;28;20039;-71
2021/07/06 01:08:59;;;;;;;6.50;3.00;;;17.00;99.90;;;;;;5081272;28;20036;-71
2021/07/06 01:11:25;;;;;;;7.13;3.00;;;17.00;99.90;;;;;;5083500;28;20551;-71
2021/07/06 01:13:51;;;;;;;6.22;3.20;;;17.00;99.90;;;;;;5082132;28;20131;-71
2021/07/06 01:16:17;;;;;;;9.35;2.95;;;17.00;99.90;;;;;;5079006;28;20083;-71
2021/07/06 01:18:43;;;;;;;4.97;3.08;;;17.00;99.90;;;;;;5082407;28;20043;-71
2021/07/06 01:21:08;;;;;;;6.55;2.40;;;17.00;99.90;;;;;;5062154;28;20062;-71
2021/07/06 01:23:34;;;;;;;5.65;2.33;;;17.10;99.90;;;;;;5079063;28;20500;-71
2021/07/06 01:26:04;;;;;;;7.18;2.38;;;17.10;99.90;;;;;;5082784;28;20404;-71
2021/07/06 01:28:30;;;;;;;6.38;1.90;;;17.10;99.90;;;;;;5060890;28;20032;-71
2021/07/06 01:30:56;;;;;;;3.72;1.88;;;17.10;99.90;;;;;;5081011;28;20564;-71
2021/07/06 01:33:24;;;;;;;6.75;2.08;;;17.10;99.90;;;;;;5083009;28;20040;-71
2021/07/06 01:35:51;;;;;;;2.88;1.90;;;17.10;99.90;;;;;;5079693;28;20097;-71
2021/07/06 01:38:17;;;;;;;3.08;1.85;;;17.10;99.90;;;;;;5084253;28;20028;-70
2021/07/06 01:40:43;;;;;;;2.38;1.65;;;17.10;99.90;;;;;;5084646;28;20515;-71
2021/07/06 01:43:08;;;;;;;3.20;1.73;;;17.10;99.90;;;;;;5082415;28;20036;-71
2021/07/06 01:45:34;;;;;;;5.00;1.85;;;17.00;99.90;;;;;;5083081;28;20029;-71
2021/07/06 01:48:01;;;;;;;4.10;1.67;;;17.00;99.90;;;;;;5086586;28;20036;-70
2021/07/06 01:50:32;;;;;;;3.70;1.60;;;17.00;99.90;;;;;;5082416;28;20149;-70
2021/07/06 01:52:59;;;;;;;3.72;1.20;;;17.00;99.90;;;;;;5067459;28;20051;-71
2021/07/06 01:55:31;;;;;;;2.20;1.38;;;17.10;99.90;;;;;;5065460;28;20510;-71
2021/07/06 01:57:58;;;;;;;1.10;0.82;;;17.00;99.90;;;;;;5085643;28;20032;-71
2021/07/06 02:00:27;;;;;;;1.55;0.82;;;17.00;99.90;;;;;;5083834;28;20062;-71
2021/07/06 02:03:00;;;;;;;1.08;0.85;;;17.00;99.90;;;;;;5084342;28;20040;-71
2021/07/06 02:05:29;;;;;;;3.35;0.93;;;17.00;99.90;;;;;;5066067;28;20049;-71
2021/07/06 02:07:55;;;;;;;9.48;1.35;;;17.00;99.90;;;;;;5074663;28;20151;-71
2021/07/06 02:10:26;;;;;;;1.83;0.88;;;17.00;99.90;;;;;;5085579;28;20052;-71
2021/07/06 02:12:52;;;;;;;3.53;1.15;;;17.00;99.90;;;;;;5083942;28;20131;-71
2021/07/06 02:15:18;;;;;;;1.67;0.88;;;17.00;99.90;;;;;;5084180;28;20055;-71
2021/07/06 02:17:44;;;;;;;1.77;0.85;;;17.00;99.90;;;;;;5083991;28;20056;-71
2021/07/06 02:20:14;;;;;;;1.48;0.68;;;17.10;99.90;;;;;;5084249;28;20051;-71
2021/07/06 02:22:42;;;;;;;1.27;0.73;;;17.10;99.90;;;;;;5085161;28;20453;-71
2021/07/06 02:25:08;;;;;;;6.15;0.85;;;17.10;99.90;;;;;;5065394;28;20637;-71
2021/07/06 02:27:34;;;;;;;1.55;0.90;;;17.10;99.90;;;;;;5085986;28;20043;-71
2021/07/06 02:30:00;;;;;;;2.05;0.73;;;17.00;99.90;;;;;;5082269;28;20493;-71
2021/07/06 02:32:25;;;;;;;1.42;0.60;;;17.00;99.90;;;;;;5085884;28;20032;-71
2021/07/06 02:34:51;;;;;;;1.35;0.75;;;17.10;99.90;;;;;;5083643;28;20059;-70
2021/07/06 02:37:17;;;;;;;1.63;0.80;;;17.10;99.90;;;;;;5084561;28;20025;-71
2021/07/06 02:39:43;;;;;;;2.40;0.55;;;17.20;99.90;;;;;;5063373;28;20507;-71
2021/07/06 02:42:09;;;;;;;2.78;0.82;;;17.10;99.90;;;;;;5083313;28;20112;-70
2021/07/06 02:44:34;;;;;;;0.98;0.70;;;17.10;99.90;;;;;;5085502;28;20943;-71
2021/07/06 02:47:01;;;;;;;3.28;0.73;;;17.10;99.90;;;;;;5081504;28;20124;-71
2021/07/06 02:49:26;;;;;;;3.28;0.50;;;17.10;99.90;;;;;;5085746;28;20047;-71
2021/07/06 02:51:52;;;;;;;1.63;0.55;;;17.20;99.90;;;;;;5083063;28;20033;-71
2021/07/06 02:54:18;;;;;;;7.28;0.70;;;17.10;99.90;;;;;;5084899;28;20044;-71
2021/07/06 02:56:43;;;;;;;1.58;0.70;;;17.20;99.90;;;;;;5084041;28;20467;-70
2021/07/06 02:59:09;;;;;;;3.67;0.80;;;17.20;99.90;;;;;;5082565;28;20036;-71
2021/07/06 03:01:34;;;;;;;0.85;0.68;;;17.20;99.90;;;;;;5085844;28;20028;-71
2021/07/06 03:04:00;;;;;;;2.58;0.73;;;17.20;99.90;;;;;;5081416;28;20522;-70
2021/07/06 03:06:28;;;;;;;0.75;0.68;;;17.20;99.90;;;;;;5084877;28;20020;-71
2021/07/06 03:08:56;;;;;;;3.88;0.60;;;17.20;99.90;;;;;;5081460;28;20094;-71
2021/07/06 03:11:22;;;;;;;2.15;0.50;;;17.10;99.90;;;;;;5084451;28;20048;-71
2021/07/06 03:13:47;;;;;;;3.03;0.60;;;17.20;99.90;;;;;;5064408;28;20040;-71
2021/07/06 03:16:13;;;;;;;0.60;0.50;;;17.20;99.90;;;;;;5062898;28;20547;-71
2021/07/06 03:18:39;;;;;;;3.80;0.88;;;17.20;99.90;;;;;;5082236;28;20158;-71
2021/07/06 03:21:04;;;;;;;1.90;0.40;;;17.20;99.90;;;;;;5083433;28;20032;-71
2021/07/06 03:23:30;;;;;;;0.85;0.43;;;17.30;99.90;;;;;;5081331;28;20681;-71
2021/07/06 03:25:55;;;;;;;3.03;0.60;;;17.30;99.90;;;;;;5084530;28;20032;-71
2021/07/06 03:28:21;;;;;;;1.33;0.70;;;17.30;99.90;;;;;;5084043;28;20044;-71
2021/07/06 03:30:47;;;;;;;0.47;0.30;;;17.30;99.90;;;;;;5082230;28;20061;-71
2021/07/06 03:33:12;;;;;;;5.70;1.75;;;17.20;99.90;;;;;;5081923;28;20032;-71
2021/07/06 03:35:38;;;;;;;1.90;0.30;;;17.30;99.90;;;;;;5078103;28;20094;-71
2021/07/06 03:38:05;;;;;;;1.13;0.70;;;17.30;99.90;;;;;;5060571;28;20033;-71
2021/07/06 03:40:31;;;;;;;2.05;0.32;;;17.30;99.90;;;;;;5079729;28;20056;-71
2021/07/06 03:42:57;;;;;;;1.48;0.47;;;17.30;99.90;;;;;;5078732;28;20060;-71
2021/07/06 03:45:23;;;;;;;2.03;0.52;;;17.40;99.90;;;;;;5080660;28;20037;-71
2021/07/06 03:47:49;;;;;;;4.43;0.70;;;17.40;99.90;;;;;;5084644;28;20032;-71
2021/07/06 03:50:20;;;;;;;2.58;0.50;;;17.40;99.90;;;;;;5082280;28;20354;-71
2021/07/06 03:52:47;;;;;;;1.30;0.90;;;17.40;99.90;;;;;;5081559;28;20399;-71
2021/07/06 03:55:13;;;;;;;4.10;0.75;;;17.30;99.90;;;;;;5081083;28;20036;-71
2021/07/06 03:57:39;;;;;;;1.65;0.40;;;17.40;99.90;;;;;;5079259;28;20037;-71
2021/07/06 04:00:08;;;;;;;0.85;0.60;;;17.40;99.90;;;;;;5081798;28;20028;-71
2021/07/06 04:02:34;;;;;;;1.45;0.40;;;17.40;99.90;;;;;;5080484;28;20040;-71
2021/07/06 04:04:59;;;;;;;1.10;0.50;;;17.50;99.90;;;;;;5082767;28;20047;-71
2021/07/06 04:07:25;;;;;;;2.67;0.82;;;17.50;99.90;;;;;;5079641;28;20712;-71
2021/07/06 04:09:51;;;;;;;6.70;0.70;;;17.50;99.90;;;;;;5082644;28;20024;-71
2021/07/06 04:12:16;;;;;;;1.23;0.50;;;17.50;99.90;;;;;;5080347;28;20048;-71
2021/07/06 04:14:42;;;;;;;2.20;0.50;;;17.70;99.90;;;;;;5081100;28;20037;-71
2021/07/06 04:17:08;;;;;;;2.45;0.50;;;17.70;99.90;;;;;;5081043;28;20626;-71
2021/07/06 04:19:34;;;;;;;2.10;0.55;;;17.70;99.90;;;;;;5062007;28;20067;-71
2021/07/06 04:21:59;;;;;;;1.45;0.80;;;17.70;99.90;;;;;;5064933;28;20032;-71
2021/07/06 04:24:25;;;;;;;0.90;0.50;;;17.70;99.90;;;;;;5079959;28;20048;-71
2021/07/06 04:26:51;;;;;;;1.83;1.02;;;17.70;99.90;;;;;;5083870;28;20039;-71
2021/07/06 04:29:16;;;;;;;1.77;0.60;;;17.60;99.90;;;;;;5066230;28;20056;-70
2021/07/06 04:31:42;;;;;;;1.95;0.70;;;17.50;99.90;;;;;;5081239;28;20036;-70
2021/07/06 04:34:08;;;;;;;1.95;0.68;;;17.40;99.90;;;;;;5076343;28;20032;-70
2021/07/06 04:36:33;;;;;;;2.22;0.80;;;17.30;99.90;;;;;;5081870;28;20565;-71
2021/07/06 04:38:59;;;;;;;4.20;0.75;;;17.30;99.90;;;;;;5080838;28;20092;-71
2021/07/06 04:41:24;;;;;;;6.53;0.95;;;17.20;99.90;;;;;;5072954;28;20571;-71
2021/07/06 04:43:50;;;;;;;2.55;0.85;;;17.30;99.90;;;;;;5074473;28;20124;-70
2021/07/06 04:46:15;;;;;;;2.78;0.70;;;17.30;99.90;;;;;;5079678;28;20039;-71
2021/07/06 04:48:41;;;;;;;1.92;0.60;;;17.30;99.90;;;;;;5082458;28;20048;-71
2021/07/06 04:51:09;;;;;;;1.58;0.70;;;17.30;99.90;;;;;;5081308;28;20028;-71
2021/07/06 04:53:37;;;;;;;2.05;0.63;;;17.30;99.90;;;;;;5071027;28;20048;-69
2021/07/06 04:56:03;;;;;;;1.48;0.70;;;17.40;99.90;;;;;;5072878;28;20572;-71
2021/07/06 04:58:29;;;;;;;3.63;0.50;;;17.50;99.90;;;;;;5074689;28;20067;-69
2021/07/06 05:00:56;;;;;;;1.52;0.32;;;17.50;99.90;;;;;;5076744;28;20036;-69
2021/07/06 05:03:22;;;;;;;3.55;0.60;;;17.60;99.90;;;;;;5052362;28;20101;-69
2021/07/06 05:05:48;;;;;;;1.77;0.80;;;17.60;99.90;;;;;;5054669;28;20028;-69
2021/07/06 05:08:15;;;;;;;0.50;0.40;;;17.60;99.90;;;;;;5075023;28;20036;-69
2021/07/06 05:10:40;;;;;;;3.58;0.40;;;17.60;99.90;;;;;;5070751;28;20135;-69
2021/07/06 05:13:06;;;;;;;2.85;0.55;;;17.60;99.90;;;;;;5074104;28;20111;-69
2021/07/06 05:15:31;;;;;;;3.30;0.47;;;17.70;99.90;;;;;;5077061;28;20029;-69
2021/07/06 05:17:58;;;;;;;1.27;0.50;;;17.70;99.90;;;;;;5070743;28;20480;-71
2021/07/06 05:20:23;;;;;;;2.85;0.50;;;17.80;99.90;;;;;;5074012;28;20052;-70
2021/07/06 05:22:49;;;;;;;2.63;0.60;;;17.70;99.90;;;;;;5072608;28;20060;-70
2021/07/06 05:25:15;;;;;;;1.95;0.60;;;17.70;99.90;;;;;;5073769;28;20480;-69
2021/07/06 05:27:41;;;;;;;1.27;0.45;;;17.80;99.90;;;;;;5074892;28;20507;-69
2021/07/06 05:30:08;;;;;;;1.85;0.50;;;17.80;99.90;;;;;;5075810;28;20608;-72
2021/07/06 05:32:37;;;;;;;6.20;0.50;;;17.80;99.90;;;;;;5072147;28;20701;-71
2021/07/06 05:35:03;;;;;;;0.90;0.38;;;17.80;99.90;;;;;;5068731;28;20036;-72
2021/07/06 05:37:28;;;;;;;2.45;0.35;;;17.90;99.90;;;;;;5070319;28;20042;-72
2021/07/06 05:39:54;;;;;;;1.65;0.60;;;17.90;99.90;;;;;;5067745;28;20029;-72
2021/07/06 05:42:20;;;;;;;3.80;0.50;;;17.90;99.90;;;;;;5055622;28;20040;-71
2021/07/06 05:44:46;;;;;;;4.88;0.60;;;18.00;99.90;;;;;;5072476;28;20029;-71
2021/07/06 05:47:14;;;;;;;4.38;0.73;;;18.00;99.90;;;;;;5075243;28;20036;-71
2021/07/06 05:49:39;;;;;;;4.07;0.60;;;18.00;99.90;;;;;;5069081;28;20044;-71
2021/07/06 05:52:05;;;;;;;1.27;0.40;;;18.10;99.90;;;;;;5061060;28;20028;-71
2021/07/06 05:54:31;;;;;;;2.85;0.45;;;18.10;99.90;;;;;;5057094;28;20451;-71
2021/07/06 05:56:56;;;;;;;2.40;0.30;;;18.10;99.90;;;;;;5058661;28;20044;-71
2021/07/06 05:59:22;;;;;;;0.50;0.15;;;18.10;99.90;;;;;;5061460;28;20064;-71
2021/07/06 06:01:48;;;;;;;0.40;0.30;;;18.10;99.90;;;;;;5074970;28;20035;-71
2021/07/06 06:04:15;;;;;;;2.05;0.50;;;18.10;99.90;;;;;;5071308;28;20047;-71
2021/07/06 06:06:40;;;;;;;1.95;0.20;;;18.20;99.90;;;;;;5070243;28;20067;-71
2021/07/06 06:09:06;;;;;;;1.90;0.40;;;18.30;99.90;;;;;;5069543;28;20064;-71
2021/07/06 06:11:31;;;;;;;3.33;0.47;;;18.30;99.90;;;;;;5061830;28;20059;-72
2021/07/06 06:13:57;;;;;;;13.00;1.15;;;18.30;99.90;;;;;;5067961;28;20044;-72
2021/07/06 06:16:23;;;;;;;1.42;0.47;;;18.30;99.90;;;;;;5067946;28;20080;-72
2021/07/06 06:18:54;;;;;;;1.05;0.50;;;18.30;99.90;;;;;;5064820;28;20033;-72
2021/07/06 06:21:21;;;;;;;4.85;0.70;;;18.40;99.90;;;;;;5053415;28;20067;-72
2021/07/06 06:23:47;;;;;;;2.60;0.30;;;18.50;99.90;;;;;;5073018;28;20051;-72
2021/07/06 06:26:12;;;;;;;3.65;0.60;;;18.50;99.90;;;;;;5076003;28;20139;-72
2021/07/06 06:28:40;;;;;;;2.78;0.52;;;18.60;99.90;;;;;;5076064;28;20039;-72
2021/07/06 06:31:06;;;;;;;4.80;0.65;;;18.50;99.90;;;;;;5072832;28;20507;-71
2021/07/06 06:33:32;;;;;;;3.17;0.40;;;18.60;99.90;;;;;;5077586;28;20094;-72
2021/07/06 06:35:57;;;;;;;7.88;0.90;;;18.70;99.90;;;;;;5078033;28;20036;-68
2021/07/06 06:38:23;;;;;;;2.58;0.40;;;18.70;99.90;;;;;;5077065;28;20658;-71
2021/07/06 06:40:48;;;;;;;1.85;0.40;;;18.80;99.90;;;;;;5072705;28;20033;-72
2021/07/06 06:43:14;;;;;;;9.43;2.25;;;18.90;99.90;;;;;;5059452;28;20063;-71
2021/07/06 06:45:40;;;;;;;0.93;0.28;;;18.90;99.90;;;;;;5073971;28;20047;-72
2021/07/06 06:48:05;;;;;;;0.90;0.30;;;19.00;99.90;;;;;;5063095;28;20114;-71
2021/07/06 06:50:31;;;;;;;6.32;0.32;;;19.10;99.90;;;;;;5072689;28;20036;-72
2021/07/06 06:52:57;;;;;;;0.55;0.22;;;19.10;99.90;;;;;;5080147;28;20036;-72
2021/07/06 06:55:22;;;;;;;5.45;0.45;;;19.20;99.90;;;;;;5076059;28;20572;-71
2021/07/06 06:57:48;;;;;;;1.23;0.35;;;19.20;99.90;;;;;;5079284;28;20075;-71
2021/07/06 07:00:14;;;;;;;1.10;0.40;;;19.30;99.90;;;;;;5077189;28;20036;-71
2021/07/06 07:02:41;;;;;;;0.63;0.38;;;19.30;99.90;;;;;;5075621;28;20028;-72
2021/07/06 07:05:07;;;;;;;2.30;0.50;;;19.40;99.90;;;;;;5064404;28;20044;-71
2021/07/06 07:07:34;;;;;;;2.45;0.30;;;19.50;99.90;;;;;;5076527;28;20041;-72
2021/07/06 07:10:00;;;;;;;2.03;0.43;;;19.50;99.90;;;;;;5079505;28;20032;-72
2021/07/06 07:12:25;;;;;;;0.95;0.40;;;19.40;99.90;;;;;;5066589;28;20048;-72
2021/07/06 07:14:51;;;;;;;0.90;0.40;;;19.40;99.90;;;;;;5077453;28;20092;-72
2021/07/06 07:17:17;;;;;;;2.05;0.50;;;19.40;99.90;;;;;;5080843;28;20051;-71
2021/07/06 07:19:43;;;;;;;2.60;0.55;;;19.40;99.90;;;;;;5071710;28;20036;-71
2021/07/06 07:22:09;;;;;;;0.93;0.40;;;19.40;99.90;;;;;;5077587;28;20028;-71
2021/07/06 07:24:35;;;;;;;1.65;0.50;;;19.40;99.90;;;;;;5074718;28;20041;-71
2021/07/06 07:27:02;;;;;;;2.53;0.40;;;19.40;99.90;;;;;;5064753;28;20024;-71
2021/07/06 07:29:28;;;;;;;1.25;0.25;;;19.50;99.90;;;;;;5075106;28;20035;-70
2021/07/06 07:31:54;;;;;;;9.43;1.35;;;19.50;99.90;;;;;;5079283;28;20112;-71
2021/07/06 07:34:20;;;;;;;1.95;0.50;;;19.60;99.90;;;;;;5074608;28;20040;-71
2021/07/06 07:36:46;;;;;;;4.15;0.40;;;19.60;99.90;;;;;;5075544;28;20114;-71
2021/07/06 07:39:13;;;;;;;0.52;0.43;;;19.80;99.90;;;;;;5075559;28;20037;-71
2021/07/06 07:41:38;;;;;;;2.33;0.50;;;19.90;99.90;;;;;;5076821;28;20032;-70
2021/07/06 07:44:04;;;;;;;2.42;0.57;;;19.80;99.90;;;;;;5079910;28;20036;-71
2021/07/06 07:46:30;;;;;;;0.73;0.40;;;19.80;99.90;;;;;;5075673;28;20036;-70
2021/07/06 07:48:56;;;;;;;1.13;0.52;;;19.90;99.90;;;;;;5075552;28;20041;-70
2021/07/06 07:51:22;;;;;;;3.05;0.60;;;19.90;99.90;;;;;;5078936;28;20048;-70
2021/07/06 07:53:47;;;;;;;2.92;0.80;;;20.00;99.90;;;;;;5074927;28;20059;-70
2021/07/06 07:56:13;;;;;;;3.08;0.50;;;20.60;99.90;;;;;;5078257;28;20199;-70
2021/07/06 07:58:40;;;;;;;4.18;0.68;;;21.20;99.90;;;;;;5079305;28;20039;-70
2021/07/06 08:01:06;;;;;;;2.28;0.30;;;22.00;99.90;;;;;;5077751;28;20377;-71
2021/07/06 08:03:31;;;;;;;2.22;0.45;;;22.50;99.90;;;;;;5075383;28;20035;-70
2021/07/06 08:05:58;;;;;;;2.78;0.55;;;22.70;99.90;;;;;;5063250;28;20116;-70
2021/07/06 08:08:24;;;;;;;2.55;0.35;;;22.90;99.90;;;;;;5075822;28;20029;-70
2021/07/06 08:10:52;;;;;;;1.55;0.63;;;22.80;99.90;;;;;;5072953;28;20036;-71
2021/07/06 08:13:25;;;;;;;2.05;0.40;;;23.10;99.90;;;;;;5076159;28;20488;-70
2021/07/06 08:15:55;;;;;;;5.15;0.22;;;24.20;99.90;;;;;;5075482;28;20450;-70
2021/07/06 08:18:21;;;;;;;2.20;0.40;;;25.00;99.90;;;;;;5073953;28;20036;-71
2021/07/06 08:20:47;;;;;;;1.30;0.30;;;25.90;99.90;;;;;;5072515;28;20063;-70
2021/07/06 08:23:13;;;;;;;2.17;0.40;;;26.70;99.90;;;;;;5076945;28;20044;-71
2021/07/06 08:25:39;;;;;;;0.50;0.22;;;27.30;99.10;;;;;;5075074;28;20032;-71
2021/07/06 08:28:05;;;;;;;3.58;0.32;;;28.10;97.80;;;;;;5076228;28;20032;-70
2021/07/06 08:30:31;;;;;;;4.90;0.88;;;28.30;94.90;;;;;;5062056;28;20039;-70
2021/07/06 08:32:56;;;;;;;3.00;0.57;;;27.50;87.90;;;;;;5073263;28;20035;-70
2021/07/06 08:35:22;;;;;;;6.03;0.60;;;26.40;87.20;;;;;;5078465;28;21237;-71
2021/07/06 08:37:48;;;;;;;1.27;0.20;;;25.70;87.70;;;;;;5061101;28;20039;-71
2021/07/06 08:40:14;;;;;;;1.08;0.20;;;24.90;91.20;;;;;;5073801;28;20025;-71
2021/07/06 08:42:40;;;;;;;6.10;1.13;;;24.30;92.80;;;;;;5074469;28;20480;-69
2021/07/06 08:45:07;;;;;;;1.65;0.40;;;24.40;93.60;;;;;;5072007;28;20024;-70
2021/07/06 08:47:33;;;;;;;2.08;0.25;;;24.60;93.80;;;;;;5058650;28;20037;-70
2021/07/06 08:50:02;;;;;;;6.05;0.40;;;25.10;91.70;;;;;;5058339;28;20051;-70
2021/07/06 08:52:29;;;;;;;8.07;0.30;;;25.00;93.20;;;;;;5062859;28;20028;-71
2021/07/06 08:54:55;;;;;;;2.58;0.40;;;25.00;91.90;;;;;;5071633;28;20035;-72
2021/07/06 08:57:21;;;;;;;3.60;0.52;;;25.20;92.70;;;;;;5075331;28;20032;-71
2021/07/06 08:59:48;;;;;;;4.18;0.60;;;25.70;90.60;;;;;;5079568;28;20101;-72
2021/07/06 09:02:18;;;;;;;4.00;0.40;;;26.00;89.50;;;;;;5063964;28;20031;-71
2021/07/06 09:04:51;;;;;;;3.35;0.40;;;26.10;87.20;;;;;;5061733;28;20064;-71
2021/07/06 09:07:18;;;;;;;2.70;0.30;;;26.30;85.70;;;;;;5076712;28;20674;-71
2021/07/06 09:09:44;;;;;;;3.22;0.40;;;26.60;87.70;;;;;;5062505;28;20115;-70
2021/07/06 09:12:14;;;;;;;3.38;0.70;;;26.40;82.00;;;;;;5072383;28;20125;-70
2021/07/06 09:14:48;;;;;;;2.75;0.40;;;26.10;84.20;;;;;;5068344;28;20037;-71
2021/07/06 09:17:16;;;;;;;2.92;0.20;;;25.80;84.60;;;;;;5056404;28;20044;-70
2021/07/06 09:19:47;;;;;;;4.90;0.35;;;24.90;83.80;;;;;;5060922;28;20036;-70
2021/07/06 09:22:19;;;;;;;2.03;0.55;;;24.50;87.00;;;;;;5058778;28;20700;-70
2021/07/06 09:24:48;;;;;;;2.80;0.65;;;24.10;89.60;;;;;;5059726;28;20044;-70
2021/07/06 09:27:26;;;;;;;2.83;0.30;;;24.00;90.40;;;;;;5062056;28;20486;-70
2021/07/06 09:30:18;;;;;;;5.25;0.82;;;23.90;90.20;;;;;;5074062;28;20037;-70
2021/07/06 09:32:47;;;;;;;2.80;0.35;;;23.70;90.40;;;;;;5048697;28;20048;-70
2021/07/06 09:35:17;;;;;;;3.50;0.37;;;23.70;90.70;;;;;;5071363;28;20115;-70
2021/07/06 09:37:43;;;;;;;3.15;0.70;;;23.80;90.70;;;;;;5070753;28;20267;-70
2021/07/06 09:40:34;;;;;;;1.85;0.30;;;23.90;90.40;;;;;;5052972;28;20039;-70
2021/07/06 09:43:16;;;;;;;4.15;0.40;;;24.00;90.40;;;;;;5050347;28;20086;-71
2021/07/06 09:46:02;;;;;;;4.68;0.20;;;24.10;90.70;;;;;;5051730;28;20276;-70
2021/07/06 09:48:29;;;;;;;4.50;1.08;;;23.90;90.00;;;;;;5075466;28;20501;-71
2021/07/06 09:51:18;;;;;;;3.25;0.50;;;23.50;90.30;;;;;;5051418;28;20504;-70
2021/07/06 09:53:51;;;;;;;2.53;0.28;;;23.10;90.60;;;;;;5069831;28;20037;-70
2021/07/06 09:56:22;;;;;;;5.35;0.28;;;22.80;91.90;;;;;;5059270;28;20036;-70
2021/07/06 09:59:00;;;;;;;3.72;0.50;;;22.70;92.10;;;;;;5076573;28;20424;-70
2021/07/06 10:01:27;;;;;;;5.20;0.40;;;22.40;91.90;;;;;;5060822;28;20036;-70
2021/07/06 10:03:54;;;;;;;2.65;0.30;;;22.30;92.10;;;;;;5060780;28;20489;-70
2021/07/06 10:06:22;;;;;;;4.82;1.13;;;22.20;92.40;;;;;;5054311;28;20380;-70
2021/07/06 10:08:52;;;;;;;3.40;0.40;;;22.10;93.30;;;;;;5079715;28;20050;-71
2021/07/06 10:11:18;;;;;;;3.92;0.60;;;22.50;93.80;;;;;;5076674;28;20090;-70
2021/07/06 10:13:48;;;;;;;8.05;0.40;;;22.70;92.80;;;;;;5060310;28;20704;-70
2021/07/06 10:16:17;;;;;;;3.17;0.50;;;22.90;92.80;;;;;;5061574;28;20055;-70
2021/07/06 10:18:44;;;;;;;6.80;0.65;;;22.80;93.10;;;;;;5064177;28;20104;-70
2021/07/06 10:21:10;;;;;;;4.07;0.85;;;22.70;92.90;;;;;;5074640;28;20245;-70
2021/07/06 10:23:38;;;;;;;1.25;0.20;;;22.70;93.60;;;;;;5055482;28;20068;-71
2021/07/06 10:26:06;;;;;;;6.53;0.40;;;23.10;92.10;;;;;;5071809;28;20032;-70
2021/07/06 10:28:32;;;;;;;6.57;0.30;;;23.10;90.60;;;;;;5075593;28;20036;-69
2021/07/06 10:31:15;;;;;;;2.70;0.47;;;22.80;90.80;;;;;;5054770;28;20112;-71
2021/07/06 10:33:42;;;;;;;11.32;0.82;;;22.60;90.80;;;;;;5071294;28;20075;-70
2021/07/06 10:36:08;;;;;;;5.30;0.32;;;22.40;91.20;;;;;;5053318;28;20032;-70
2021/07/06 10:38:39;;;;;;;3.35;0.38;;;22.30;91.80;;;;;;5072861;28;20041;-70
2021/07/06 10:41:14;;;;;;;3.95;0.52;;;22.10;92.50;;;;;;5054084;28;20033;-70
2021/07/06 10:43:42;;;;;;;4.05;0.68;;;22.10;92.20;;;;;;5068305;28;20109;-69
2021/07/06 10:46:20;;;;;;;8.13;0.47;;;22.20;92.70;;;;;;5064010;28;20028;-70
2021/07/06 10:48:45;;;;;;;5.35;1.02;;;22.60;92.30;;;;;;5060466;28;20040;-70
2021/07/06 10:51:41;;;;;;;3.53;0.60;;;22.60;92.60;;;;;;5075447;28;20040;-71
2021/07/06 10:54:18;;;;;;;2.85;0.20;;;22.80;92.80;;;;;;5033543;28;20111;-70
2021/07/06 10:56:44;;;;;;;6.25;1.02;;;22.90;91.70;;;;;;5077339;28;20038;-70
2021/07/06 10:59:24;;;;;;;2.67;0.35;;;23.00;91.80;;;;;;5054980;28;20058;-70
2021/07/06 11:01:49;;;;;;;3.40;0.38;;;23.00;90.10;;;;;;5069769;28;20044;-70
2021/07/06 11:04:45;;;;;;;6.68;0.40;;;23.00;90.40;;;;;;5072584;28;20033;-70
2021/07/06 11:07:12;;;;;;;1.98;0.28;;;23.20;91.10;;;;;;5058051;28;20432;-70
2021/07/06 11:09:38;;;;;;;2.72;0.38;;;23.00;91.10;;;;;;5075983;28;20097;-70
2021/07/06 11:12:26;;;;;;;4.00;0.57;;;22.80;90.70;;;;;;5077478;28;20040;-70
2021/07/06 11:14:54;;;;;;;1.88;0.20;;;22.60;91.50;;;;;;5057653;28;20613;-69
2021/07/06 11:17:33;;;;;;;2.25;0.22;;;22.40;92.60;;;;;;5077180;28;20052;-70
2021/07/06 11:20:05;;;;;;;3.47;0.35;;;22.10;91.50;;;;;;5077079;28;20045;-69
2021/07/06 11:22:45;;;;;;;1.15;0.22;;;21.80;92.50;;;;;;5058970;28;20044;-70
2021/07/06 11:25:21;;;;;;;15.73;0.95;;;21.60;93.30;;;;;;5073682;28;20483;-70
2021/07/06 11:27:55;;;;;;;2.20;0.52;;;21.70;93.40;;;;;;5073214;28;20050;-70
2021/07/06 11:30:28;;;;;;;3.55;0.63;;;21.80;93.00;;;;;;5059321;28;20059;-70
2021/07/06 11:33:08;;;;;;;2.30;0.50;;;22.00;93.00;;;;;;5075979;28;20027;-70
2021/07/06 11:35:35;;;;;;;;;;;22.20;92.90;;;;;;5055250;28;20032;-70
2021/07/06 11:38:07;;;;;;;2.67;0.30;;;22.50;93.30;;;;;;5076033;28;19916;-70
2021/07/06 11:40:34;;;;;;;1.85;0.30;;;22.70;92.30;;;;;;5071276;28;20029;-70
2021/07/06 11:43:00;;;;;;;2.92;0.40;;;22.60;92.40;;;;;;5075777;28;20040;-71
2021/07/06 11:45:26;;;;;;;4.10;0.40;;;22.80;92.30;;;;;;5072880;28;20035;-70
2021/07/06 11:48:13;;;;;;;3.03;0.50;;;22.90;93.10;;;;;;5074910;28;20115;-70
2021/07/06 11:50:41;;;;;;;6.70;0.40;;;23.00;92.10;;;;;;5074013;28;20047;-70
2021/07/06 11:53:07;;;;;;;25.20;1.27;;;23.10;92.20;;;;;;5076399;28;20043;-70
2021/07/06 11:55:34;;;;;;;5.05;0.25;;;23.10;91.50;;;;;;5076005;28;20036;-70
2021/07/06 11:58:02;;;;;;;5.07;0.47;;;22.90;91.70;;;;;;5073909;28;20860;-69
2021/07/06 12:00:30;;;;;;;3.08;0.70;;;22.50;91.10;;;;;;5062158;28;20032;-70
2021/07/06 12:03:18;;;;;;;5.95;0.20;;;22.20;92.20;;;;;;5077028;28;20043;-70
2021/07/06 12:05:45;;;;;;;3.25;0.60;;;22.10;93.20;;;;;;5058545;28;20123;-70
2021/07/06 12:08:16;;;;;;;3.95;0.60;;;21.90;92.50;;;;;;5071869;28;20117;-69
2021/07/06 12:10:56;;;;;;;4.80;0.40;;;21.70;92.70;;;;;;5049719;28;20032;-70
2021/07/06 12:13:21;;;;;;;1.95;0.35;;;21.50;93.30;;;;;;5071884;28;20468;-71
2021/07/06 12:15:48;;;;;;;3.83;0.60;;;21.40;93.60;;;;;;5071077;28;20532;-70
2021/07/06 12:18:15;;;;;;;5.50;0.50;;;21.30;94.20;;;;;;5057558;28;20104;-70
2021/07/06 12:20:41;;;;;;;2.70;1.17;;;21.30;94.10;;;;;;5055814;28;20037;-70
2021/07/06 12:23:06;;;;;;;5.15;0.52;;;21.20;95.20;;;;;;5058152;28;20081;-70
2021/07/06 12:25:32;;;;;;;7.57;0.43;;;21.30;95.10;;;;;;5073894;28;20036;-70
2021/07/06 12:27:58;;;;;;;15.00;1.17;;;21.10;94.70;;;;;;5060473;28;20070;-70
2021/07/06 12:30:24;;;;;;;3.83;0.50;;;21.00;95.00;;;;;;5075768;28;20039;-71
2021/07/06 12:33:09;;;;;;;5.40;1.02;;;20.90;94.40;;;;;;5058650;28;20045;-70
2021/07/06 12:35:37;;;;;;;6.47;1.42;;;20.80;95.20;;;;;;5072141;28;20040;-70
2021/07/06 12:38:06;;;;;;;6.47;0.80;;;20.70;95.50;;;;;;5067791;28;20029;-70
2021/07/06 12:40:32;;;;;;;7.93;0.30;;;20.60;96.00;;;;;;5057092;28;20029;-70
2021/07/06 12:42:59;;;;;;;4.43;0.30;;;20.80;96.00;;;;;;5073795;28;20060;-70
2021/07/06 12:45:34;;;;;;;3.75;0.50;;;21.10;95.50;;;;;;5060065;28;20404;-70
2021/07/06 12:48:00;;;;;;;3.55;0.57;;;21.50;95.00;;;;;;5073808;28;20036;-70
2021/07/06 12:50:28;;;;;;;2.28;0.28;;;21.70;95.40;;;;;;5058951;28;20038;-70